Airfield :
LOGIN :

Register | Disclaimer

   EN    FR    IT 

 










Legend :    VFR   Marginal VFR   IFR   Intensive IFR   Very Intensive IFR
Visi :
Ceiling :
>= 8 km
>= 3000ft
5 to 8 km
1000 to 3000 ft
1500m to 5 km
500 to 1000 ft
800 to 1500m
200 to 500 ft
< 800m
< 200 ft
Symbols :   Thunderstorms  Fog  Heavy snow  Heavy precipitations  Wind > 20 kt
SIGMETs :     Misc.  Thunderstorms  Icing  Turbulence  Mountain Waves  Volcanic Ashes







- Airport Elevation : 79 ft
- IATA code : NSY


LICZ - Sigonella (Mil) Catania

CURRENT METAR :
  • 191055Z 09013KT 9999 FEW025TCU SCT030 31/18 Q1013 RMK SCT VIS MIN 9999 WIND THR28 09012KT WIND THR10 10012KT A2993 BLU

EXPIRED METARs :
  • 190955Z 09008KT 9999 SCT025 32/19 Q1013 RMK SCT VIS MIN 9999 WIND THR28 09011KT WIND THR10 08006KT A2994 BLU
  • 190855Z 18004KT 9999 FEW020 30/18 Q1014 RMK FEW VIS MIN 9999 WIND THR28 14004KT WIND THR10 09005KT A2995 BLU

TAF TAF LICZ
Valid from the 19 at 12:00 until the 19 at 21:00 UTC


191100Z 1912/1921 09016KT 9999 FEW025 SCT070
TEMPO 1914/1918 8000 TSRA FEW020CB
No reported NOTAMs for that airfield.
1 SIGMET reported for the Roma FIR (LIRR) :
 
Severe turbulence
LIRR SIGMET 2 VALID 190920/191120 LIIB
LIRR ROMA FIR SEV TURB FCST WI N3836 E00851 - N4038 E01121 - N4328 E01215 - N4304 E00949 - N4118 E00953 - N4118 E00827 - N4102 E00757 - N3905 E00758 - N3836 E00851 FL220/360 STNR WKN=



MET'MAP, your aeronautical weather chart ! - Copyright ORBIFLY December 2007 - Disclaimer

ORBIFLY MET'MAP TEAM :

Programming & Development : Alexandra Zaïnal
Concept & Development : Baudouin d'Aumeries
Co-Development & Prog : Marc-Olivier Méhu
Technical & hardware support : Manuel Goepfert

Contact : metmap@orbifly.com




SOURCES & CREDITS :

   NOAA